Hennessey, Oklahoma
Current Conditions -  °F | °C
As of 12:18 AM on Sunday 23 Nov 2014 (Local Time) from KEND Reporting Station
Broken Clouds Broken Clouds  
Wind Chill: 54°   Ceiling: 900
Heat Index: 54°   Visibility: 10mi
Dew Point: 54°   Wind: 13mph
Humidity: 100%   Direction: 180°S
Pressure: 29.61"   Gusts: NA
Location:  36.11°N, 97.9°W
Report Text: KEND 230618Z AUTO 18011KT 10SM BKN009 BKN013 12/12 A2961 RMK AO2 CIG 009V012 $
Loading
Personal Weather Stations






























Interactive Weather Map New forecast layout! Learn more

10-Day Weather Forecast

Advertisements
Track Severe Weather on mobile